Vistas de Monte Sol, Puerto Rico
Current Conditions -  °F | °C
As of 10:50 PM on Friday 24 Oct 2014 (Local Time) from TJBQ Reporting Station
Clear Clear  
Wind Chill: 77°   Ceiling: Unl
Heat Index: 78°   Visibility: 10mi
Dew Point: 75°   Wind: 0mph
Humidity: 94%   Direction: NA
Pressure: 29.93"   Gusts: NA
Location:  18.0306°N, 66.8507°W
Report Text: TJBQ 250250Z 00000KT 10SM SKC 25/24 A2993 RMK RWY08 - ATIS G
Loading
Personal Weather Stations






























Interactive Weather Map
Tropical Storm Tracking
New forecast layout! Learn more

10-Day Weather Forecast

Advertisements
Track Severe Weather on mobile